Time;durP1;ratioP1;P1;durP2;ratioP2;P2;SDS_P1;SDS_P2;PMS_P1;PMS_P2;Temp;Humidity;BMP_temperature;BMP_pressure;BME280_temperature;BME280_humidity;BME280_pressure;Samples;Min_cycle;Max_cycle;Signal;HPM_P1;HPM_P2
2022/03/15 00:01:22;;;;;;;25.33;17.38;;;;;;;8.23;72.94;102558.00;3589289;40;20374;-63
2022/03/15 00:03:48;;;;;;;25.63;17.40;;;;;;;8.19;73.37;102547.41;3589507;40;20081;-63
2022/03/15 00:06:15;;;;;;;32.20;18.52;;;;;;;8.27;72.40;102561.50;3591032;40;20402;-63
2022/03/15 00:08:41;;;;;;;27.95;17.50;;;;;;;8.29;72.72;102554.31;3590404;39;20125;-63
2022/03/15 00:11:07;;;;;;;27.70;17.08;;;;;;;8.28;72.44;102557.91;3591614;40;20438;-63
2022/03/15 00:13:38;;;;;;;28.27;17.40;;;;;;;8.24;72.53;102559.75;3590057;39;20106;-63
2022/03/15 00:16:07;;;;;;;28.40;17.02;;;;;;;8.21;72.75;102559.84;3591824;40;20047;-63
2022/03/15 00:18:32;;;;;;;26.13;17.63;;;;;;;8.21;72.70;102559.84;3588976;39;20040;-63
2022/03/15 00:21:02;;;;;;;27.02;16.73;;;;;;;8.21;72.51;102551.78;3588770;40;20425;-63
2022/03/15 00:23:29;;;;;;;28.75;16.15;;;;;;;8.20;72.30;102542.00;3591204;40;20062;-63
2022/03/15 00:25:55;;;;;;;29.33;17.05;;;;;;;8.22;72.10;102533.94;3589646;40;20052;-63
2022/03/15 00:28:24;;;;;;;23.15;15.73;;;;;;;8.21;71.87;102543.75;3591204;40;20121;-63
2022/03/15 00:30:50;;;;;;;26.25;16.83;;;;;;;8.20;72.52;102536.66;3588974;40;20060;-63
2022/03/15 00:33:16;;;;;;;24.30;16.02;;;;;;;8.17;72.75;102542.09;3589584;40;20047;-63
2022/03/15 00:35:42;;;;;;;31.73;16.13;;;;;;;8.14;72.57;102553.75;3591188;39;20059;-63
2022/03/15 00:38:08;;;;;;;29.33;16.13;;;;;;;8.06;72.85;102544.16;3590019;40;20060;-63
2022/03/15 00:40:35;;;;;;;30.52;16.70;;;;;;;8.07;73.13;102546.78;3588652;40;20059;-63
2022/03/15 00:43:02;;;;;;;29.77;17.75;;;;;;;8.09;72.98;102549.44;3588082;40;20302;-63
2022/03/15 00:45:28;;;;;;;28.02;17.42;;;;;;;8.08;73.36;102548.53;3589785;40;20378;-64
2022/03/15 00:47:57;;;;;;;23.92;16.30;;;;;;;8.09;72.91;102550.31;3589383;40;20054;-63
2022/03/15 00:50:25;;;;;;;26.73;17.05;;;;;;;8.10;73.53;102551.19;3591447;39;20141;-64
2022/03/15 00:52:52;;;;;;;22.58;16.45;;;;;;;8.05;73.33;102537.91;3588644;40;20055;-63
2022/03/15 00:55:19;;;;;;;27.65;16.58;;;;;;;8.12;72.60;102535.97;3590608;40;20060;-63
2022/03/15 00:57:45;;;;;;;27.02;15.27;;;;;;;8.18;72.07;102534.94;3589618;39;20112;-63
2022/03/15 01:00:12;;;;;;;25.50;15.40;;;;;;;8.21;71.66;102534.84;3589071;40;20375;-63
2022/03/15 01:02:38;;;;;;;23.15;15.20;;;;;;;8.22;70.89;102526.78;3590530;40;20426;-63
2022/03/15 01:05:04;;;;;;;26.10;15.77;;;;;;;8.22;71.52;102521.44;3587465;40;20064;-63
2022/03/15 01:07:30;;;;;;;25.42;15.63;;;;;;;8.23;71.57;102525.88;3591368;40;20091;-63
2022/03/15 01:09:55;;;;;;;25.33;15.05;;;;;;;8.24;70.69;102526.75;3586510;40;20409;-63
2022/03/15 01:12:21;;;;;;;25.92;15.40;;;;;;;8.28;70.31;102525.78;3591025;39;20081;-63
2022/03/15 01:14:47;;;;;;;24.45;14.38;;;;;;;8.27;70.96;102532.03;3590254;39;20064;-63
2022/03/15 01:17:13;;;;;;;24.17;14.95;;;;;;;8.23;70.91;102530.34;3589666;40;20051;-63
2022/03/15 01:19:39;;;;;;;24.52;15.30;;;;;;;8.23;70.45;102536.56;3587992;40;20397;-64
2022/03/15 01:22:04;;;;;;;20.67;14.10;;;;;;;8.24;70.46;102526.75;3589001;40;20044;-63
2022/03/15 01:24:30;;;;;;;23.08;14.40;;;;;;;8.12;70.36;102507.38;3590515;40;20055;-63
2022/03/15 01:26:56;;;;;;;22.33;14.27;;;;;;;8.25;70.95;102534.75;3589472;40;20092;-63
2022/03/15 01:29:24;;;;;;;28.30;15.18;;;;;;;8.16;71.00;102510.00;3590250;39;20048;-63
2022/03/15 01:31:49;;;;;;;24.88;14.20;;;;;;;8.29;70.38;102519.47;3588670;39;20394;-64
2022/03/15 01:34:16;;;;;;;23.52;14.05;;;;;;;8.31;70.01;102506.94;3590363;40;20051;-64
2022/03/15 01:36:43;;;;;;;20.25;13.25;;;;;;;8.32;70.41;102514.03;3588677;39;20044;-63
2022/03/15 01:39:10;;;;;;;20.30;13.18;;;;;;;8.31;70.57;102504.25;3587493;40;20056;-64
2022/03/15 01:41:39;;;;;;;21.20;13.30;;;;;;;8.24;69.38;102481.19;3592328;40;20040;-64
2022/03/15 01:44:20;;;;;;;22.30;13.35;;;;;;;8.30;69.47;102500.66;3589484;40;20471;-64
2022/03/15 01:46:49;;;;;;;22.83;13.35;;;;;;;8.29;69.77;102495.38;3585454;40;20314;-64
2022/03/15 01:49:15;;;;;;;22.73;13.80;;;;;;;8.28;69.71;102489.13;3590050;40;20043;-63
2022/03/15 01:51:43;;;;;;;23.35;14.48;;;;;;;8.24;69.82;102500.81;3587830;40;20287;-64
2022/03/15 01:54:11;;;;;;;21.88;13.63;;;;;;;8.01;69.82;102463.03;3591462;40;20056;-63
2022/03/15 01:56:41;;;;;;;20.00;13.45;;;;;;;8.18;70.20;102497.41;3588403;39;20299;-63
2022/03/15 01:59:13;;;;;;;21.25;12.98;;;;;;;8.13;70.82;102493.06;3589613;40;20056;-63
2022/03/15 02:01:41;;;;;;;20.98;14.43;;;;;;;8.12;71.19;102496.69;3589680;40;20059;-64
2022/03/15 02:04:09;;;;;;;22.45;14.07;;;;;;;8.09;69.85;102483.34;3585025;40;20499;-63
2022/03/15 02:06:37;;;;;;;20.13;13.50;;;;;;;8.11;70.60;102494.91;3588278;40;20335;-64
2022/03/15 02:09:11;;;;;;;21.10;13.25;;;;;;;8.12;69.97;102491.31;3590006;40;20056;-63
2022/03/15 02:11:36;;;;;;;;;;;;;;;8.09;70.50;102488.72;3588369;39;20066;-63
2022/03/15 02:14:04;;;;;;;24.05;12.70;;;;;;;8.05;70.38;102478.97;3586928;40;19940;-64
2022/03/15 02:16:31;;;;;;;20.60;12.77;;;;;;;8.11;69.84;102484.19;3591677;39;20060;-63
2022/03/15 02:18:58;;;;;;;27.38;13.50;;;;;;;8.13;69.53;102481.47;3589589;40;20059;-63
2022/03/15 02:21:25;;;;;;;20.77;12.57;;;;;;;8.09;70.28;102472.66;3588291;40;20144;-63
2022/03/15 02:23:50;;;;;;;20.55;12.60;;;;;;;8.09;70.12;102469.97;3587869;39;20072;-63
2022/03/15 02:26:16;;;;;;;22.20;12.45;;;;;;;7.89;70.24;102435.63;3587289;40;20131;-63
2022/03/15 02:28:43;;;;;;;19.40;12.50;;;;;;;7.98;69.79;102442.56;3585771;40;20404;-63
2022/03/15 02:31:09;;;;;;;19.65;12.10;;;;;;;8.09;69.76;102458.38;3589072;40;20055;-63
2022/03/15 02:33:35;;;;;;;21.95;13.15;;;;;;;8.13;69.35;102460.94;3588054;40;20067;-63
2022/03/15 02:36:01;;;;;;;20.98;13.05;;;;;;;8.14;69.29;102461.81;3589059;40;20055;-63
2022/03/15 02:38:26;;;;;;;21.40;12.57;;;;;;;8.14;69.53;102462.69;3588258;40;20298;-63
2022/03/15 02:40:52;;;;;;;23.58;12.10;;;;;;;8.13;69.70;102460.94;3589271;40;20054;-62
2022/03/15 02:43:18;;;;;;;21.17;13.10;;;;;;;8.13;69.46;102463.59;3590096;39;20055;-63
2022/03/15 02:45:44;;;;;;;22.25;12.60;;;;;;;8.10;69.39;102460.13;3588006;40;20063;-62
2022/03/15 02:48:09;;;;;;;24.13;12.75;;;;;;;8.07;69.21;102457.53;3592440;40;20054;-63
2022/03/15 02:50:35;;;;;;;19.25;11.23;;;;;;;8.07;69.51;102450.38;3589085;40;20066;-63
2022/03/15 02:53:01;;;;;;;17.35;11.75;;;;;;;8.08;68.90;102452.13;3590121;40;20048;-62
2022/03/15 02:55:29;;;;;;;18.20;11.55;;;;;;;8.06;69.15;102448.63;3589127;40;20051;-63
2022/03/15 02:57:55;;;;;;;18.02;11.60;;;;;;;8.05;69.79;102452.19;3597013;39;20048;-63
2022/03/15 03:00:21;;;;;;;18.10;11.30;;;;;;;8.03;69.69;102437.97;3591449;39;20593;-63
2022/03/15 03:02:47;;;;;;;21.73;11.90;;;;;;;8.02;69.46;102441.56;3591535;40;20052;-63
2022/03/15 03:05:12;;;;;;;17.80;11.48;;;;;;;8.04;69.31;102437.06;3591405;39;20056;-63
2022/03/15 03:07:38;;;;;;;18.40;11.20;;;;;;;8.00;68.68;102416.63;3588583;40;20059;-63
2022/03/15 03:10:05;;;;;;;17.08;11.10;;;;;;;8.07;68.62;102412.88;3590619;40;20063;-64
2022/03/15 03:12:31;;;;;;;19.77;11.07;;;;;;;7.89;68.74;102379.41;3591941;39;20043;-63
2022/03/15 03:14:57;;;;;;;19.35;10.85;;;;;;;8.11;68.28;102409.19;3589175;40;20370;-63
2022/03/15 03:17:24;;;;;;;22.05;11.73;;;;;;;8.14;68.04;102414.47;3590678;39;20055;-63
2022/03/15 03:19:49;;;;;;;18.48;11.43;;;;;;;8.11;68.48;102402.97;3591465;39;20063;-63
2022/03/15 03:22:15;;;;;;;21.10;11.57;;;;;;;8.10;68.34;102402.09;3587341;39;20056;-63
2022/03/15 03:24:41;;;;;;;16.40;11.10;;;;;;;8.12;68.22;102407.41;3591079;40;20391;-63
2022/03/15 03:27:07;;;;;;;18.30;10.80;;;;;;;8.11;68.35;102411.00;3591939;39;20040;-63
2022/03/15 03:29:32;;;;;;;20.08;11.52;;;;;;;8.10;68.83;102403.88;3587956;39;20382;-63
2022/03/15 03:31:58;;;;;;;23.95;11.68;;;;;;;8.01;68.26;102396.09;3592113;40;20051;-63
2022/03/15 03:34:24;;;;;;;18.40;11.50;;;;;;;8.03;68.80;102403.16;3592507;40;20060;-63
2022/03/15 03:36:49;;;;;;;18.55;11.10;;;;;;;8.02;68.97;102397.84;3592250;40;20074;-63
2022/03/15 03:39:15;;;;;;;20.85;11.70;;;;;;;8.00;68.48;102400.56;3593591;39;20055;-63
2022/03/15 03:41:40;;;;;;;19.17;11.60;;;;;;;8.00;68.92;102403.25;3592983;39;20093;-63
2022/03/15 03:44:06;;;;;;;18.25;10.95;;;;;;;7.98;69.03;102399.72;3592957;40;20363;-63
2022/03/15 03:46:32;;;;;;;19.42;11.82;;;;;;;7.97;69.02;102408.69;3592992;40;20052;-63
2022/03/15 03:48:58;;;;;;;24.95;16.85;;;;;;;7.97;69.31;102395.28;3593379;40;20070;-63
2022/03/15 03:51:24;;;;;;;20.90;13.40;;;;;;;7.96;68.52;102395.31;3593135;40;20082;-63
2022/03/15 03:53:49;;;;;;;19.55;10.85;;;;;;;7.95;68.67;102399.78;3593004;40;20112;-63
2022/03/15 03:56:15;;;;;;;16.92;10.30;;;;;;;7.95;68.61;102391.75;3591973;39;20332;-63
2022/03/15 03:58:41;;;;;;;22.67;11.35;;;;;;;7.91;68.93;102387.41;3592889;40;20059;-63
2022/03/15 04:01:06;;;;;;;17.15;11.32;;;;;;;7.91;69.03;102390.09;3591449;39;20056;-63
2022/03/15 04:03:33;;;;;;;20.38;11.20;;;;;;;7.89;69.35;102391.91;3593018;39;20058;-63
2022/03/15 04:06:01;;;;;;;15.45;10.55;;;;;;;7.87;68.86;102402.69;3589874;40;20051;-63
2022/03/15 04:08:26;;;;;;;17.63;10.50;;;;;;;7.87;68.51;102399.13;3590779;40;20044;-63
2022/03/15 04:10:52;;;;;;;18.10;10.98;;;;;;;7.86;69.28;102389.31;3589734;39;20063;-64
2022/03/15 04:13:18;;;;;;;20.50;11.07;;;;;;;7.89;68.68;102402.63;3588642;40;20083;-63
2022/03/15 04:15:49;;;;;;;18.65;9.85;;;;;;;7.88;68.65;102395.53;3594216;40;20302;-65
2022/03/15 04:18:15;;;;;;;18.80;10.02;;;;;;;7.87;68.88;102401.81;3591668;39;20044;-65
2022/03/15 04:20:41;;;;;;;17.45;10.75;;;;;;;7.82;68.65;102403.72;3591973;39;20056;-64
2022/03/15 04:23:08;;;;;;;18.48;10.65;;;;;;;7.81;69.48;102407.31;3593673;40;20384;-64
2022/03/15 04:25:34;;;;;;;19.40;10.50;;;;;;;7.72;69.38;102400.38;3587026;40;20044;-64
2022/03/15 04:28:00;;;;;;;23.35;11.57;;;;;;;7.79;69.30;102403.78;3593711;40;20688;-63
2022/03/15 04:30:31;;;;;;;17.00;10.55;;;;;;;7.81;69.17;102410.00;3591138;39;20040;-64
2022/03/15 04:32:58;;;;;;;19.58;11.13;;;;;;;7.81;69.58;102404.63;3589628;39;20055;-64
2022/03/15 04:35:24;;;;;;;18.00;11.35;;;;;;;7.81;69.63;102410.00;3588995;39;20052;-64
2022/03/15 04:37:54;;;;;;;15.07;10.10;;;;;;;7.81;69.57;102404.63;3587993;40;20060;-63
2022/03/15 04:40:21;;;;;;;17.90;10.82;;;;;;;7.81;69.06;102402.84;3592314;40;20411;-64
2022/03/15 04:42:48;;;;;;;19.73;10.65;;;;;;;7.72;69.29;102394.16;3587664;39;20160;-64
2022/03/15 04:45:15;;;;;;;16.92;10.30;;;;;;;7.77;68.94;102392.22;3589139;40;20048;-63
2022/03/15 04:47:41;;;;;;;20.30;10.60;;;;;;;7.76;69.58;102393.16;3589451;39;20375;-63
2022/03/15 04:50:09;;;;;;;17.80;10.90;;;;;;;7.71;69.27;102384.34;3592413;40;20067;-64
2022/03/15 04:52:35;;;;;;;20.30;10.45;;;;;;;7.77;68.85;102392.22;3589603;39;20110;-64
2022/03/15 04:55:03;;;;;;;16.52;10.30;;;;;;;7.68;69.23;102367.47;3588160;40;20052;-63
2022/03/15 04:57:28;;;;;;;23.02;10.43;;;;;;;7.79;69.06;102385.03;3587179;40;20408;-64
2022/03/15 04:59:55;;;;;;;18.15;10.65;;;;;;;7.79;69.53;102377.00;3587379;39;20060;-63
2022/03/15 05:02:22;;;;;;;20.98;10.95;;;;;;;7.76;69.34;102385.13;3592399;39;20374;-63
2022/03/15 05:04:47;;;;;;;18.20;11.07;;;;;;;7.74;69.46;102384.25;3591543;39;20064;-64
2022/03/15 05:07:13;;;;;;;17.67;10.45;;;;;;;7.72;69.74;102375.41;3593581;39;20439;-64
2022/03/15 05:11:05;;;;;;;19.23;12.30;;;;;;;7.70;69.53;102369.22;3591031;39;20047;-64
2022/03/15 05:12:25;;;;;;;21.67;11.98;;;;;;;7.66;70.17;102373.75;3586859;40;20044;-64
2022/03/15 05:14:50;;;;;;;25.15;13.43;;;;;;;7.64;70.17;102370.22;3589090;39;20052;-64
2022/03/15 05:17:16;;;;;;;26.02;16.33;;;;;;;7.66;70.40;102371.09;3587475;40;20044;-64
2022/03/15 05:19:41;;;;;;;26.30;12.55;;;;;;;7.62;70.01;102362.25;3588957;39;20054;-64
2022/03/15 05:22:07;;;;;;;21.25;11.10;;;;;;;7.72;69.67;102372.75;3588777;39;20051;-64
2022/03/15 05:24:34;;;;;;;21.98;11.20;;;;;;;7.75;68.97;102368.19;3593998;39;20058;-64
2022/03/15 05:27:00;;;;;;;18.65;9.73;;;;;;;7.78;68.46;102367.22;3588626;40;20060;-64
2022/03/15 05:29:25;;;;;;;20.50;10.02;;;;;;;7.83;67.94;102370.66;3594003;39;20052;-64
2022/03/15 05:31:51;;;;;;;18.65;10.82;;;;;;;7.88;68.10;102371.44;3589191;40;20117;-64
2022/03/15 05:34:17;;;;;;;17.35;10.25;;;;;;;7.84;68.98;102361.72;3591458;40;20301;-64
2022/03/15 05:36:44;;;;;;;21.25;10.07;;;;;;;7.83;68.44;102359.94;3586930;40;20087;-64
2022/03/15 05:39:10;;;;;;;25.38;10.93;;;;;;;7.78;69.20;102351.16;3589680;39;20383;-64
2022/03/15 05:41:36;;;;;;;19.27;10.35;;;;;;;7.79;69.21;102351.13;3588331;40;20561;-64
2022/03/15 05:44:01;;;;;;;20.77;10.77;;;;;;;7.75;68.72;102349.44;3590385;40;20075;-64
2022/03/15 05:46:28;;;;;;;20.58;10.70;;;;;;;7.69;69.51;102344.25;3587677;40;20071;-64
2022/03/15 05:48:56;;;;;;;15.63;11.05;;;;;;;7.67;69.93;102341.63;3589728;40;20084;-64
2022/03/15 05:51:21;;;;;;;17.45;11.00;;;;;;;7.41;70.69;102299.44;3587188;39;20052;-63
2022/03/15 05:53:47;;;;;;;18.67;11.20;;;;;;;7.64;70.05;102341.69;3590279;40;20067;-64
2022/03/15 05:56:13;;;;;;;20.77;10.63;;;;;;;7.63;70.59;102339.91;3591186;40;20480;-63
2022/03/15 05:58:38;;;;;;;17.02;10.57;;;;;;;7.58;69.85;102328.47;3592002;39;20055;-64
2022/03/15 06:01:04;;;;;;;17.67;10.43;;;;;;;7.67;70.17;102344.31;3589985;40;20048;-64
2022/03/15 06:03:29;;;;;;;14.57;10.10;;;;;;;7.70;70.15;102339.78;3588167;39;20125;-64
2022/03/15 06:05:55;;;;;;;18.85;10.23;;;;;;;7.70;69.89;102337.09;3592618;40;20069;-63
2022/03/15 06:08:21;;;;;;;18.30;9.85;;;;;;;7.73;69.46;102342.38;3586977;40;20039;-63
2022/03/15 06:10:47;;;;;;;19.20;10.35;;;;;;;7.74;69.84;102339.66;3591817;39;20079;-62
2022/03/15 06:13:13;;;;;;;20.15;10.60;;;;;;;7.74;69.85;102337.00;3591584;39;20052;-62
2022/03/15 06:15:39;;;;;;;16.50;10.32;;;;;;;7.28;70.20;102254.31;3591931;39;20067;-62
2022/03/15 06:18:05;;;;;;;15.68;11.10;;;;;;;7.77;69.24;102341.38;3590904;40;20047;-62
2022/03/15 06:20:31;;;;;;;15.70;9.93;;;;;;;7.79;69.60;102340.41;3588673;39;20426;-62
2022/03/15 06:22:59;;;;;;;15.98;10.70;;;;;;;7.81;69.21;102335.03;3590927;40;20047;-62
2022/03/15 06:25:25;;;;;;;18.83;10.40;;;;;;;7.80;69.31;102336.84;3588718;40;20040;-62
2022/03/15 06:27:52;;;;;;;17.25;10.32;;;;;;;7.81;69.63;102335.03;3589330;40;20081;-62
2022/03/15 06:30:22;;;;;;;21.08;11.07;;;;;;;7.78;69.54;102335.09;3590968;40;20153;-62
2022/03/15 06:32:48;;;;;;;18.52;11.50;;;;;;;7.58;69.62;102295.47;3592527;39;20448;-62
2022/03/15 06:35:14;;;;;;;20.00;11.13;;;;;;;7.67;69.12;102312.19;3592173;39;20287;-62
2022/03/15 06:37:45;;;;;;;22.73;11.07;;;;;;;7.85;69.55;102331.34;3591379;40;20052;-62
2022/03/15 06:40:13;;;;;;;22.63;10.70;;;;;;;7.88;69.45;102333.94;3590030;40;20067;-63
2022/03/15 06:42:40;;;;;;;17.55;10.98;;;;;;;7.92;68.83;102330.25;3591949;39;20121;-63
2022/03/15 06:45:08;;;;;;;19.83;11.23;;;;;;;7.94;69.30;102324.88;3591984;39;20050;-63
2022/03/15 06:47:36;;;;;;;19.85;10.90;;;;;;;7.91;68.77;102323.16;3590904;40;20323;-64
2022/03/15 06:50:07;;;;;;;17.45;10.52;;;;;;;7.98;68.23;102323.88;3590152;39;20491;-63
2022/03/15 06:52:33;;;;;;;18.23;10.80;;;;;;;8.01;68.50;102324.66;3590384;40;20040;-63
2022/03/15 06:54:58;;;;;;;18.17;10.95;;;;;;;8.05;68.38;102318.28;3589256;40;20145;-63
2022/03/15 06:57:24;;;;;;;21.60;10.80;;;;;;;8.07;68.29;102315.59;3590841;40;20365;-64
2022/03/15 06:59:50;;;;;;;17.77;10.68;;;;;;;8.08;67.52;102318.22;3591901;40;20060;-62
2022/03/15 07:02:15;;;;;;;26.23;12.13;;;;;;;8.10;67.48;102315.50;3589878;39;20075;-63
2022/03/15 07:04:41;;;;;;;16.02;10.32;;;;;;;8.15;66.87;102310.91;3591509;39;20062;-62
2022/03/15 07:07:07;;;;;;;17.67;10.75;;;;;;;8.07;66.82;102289.69;3592149;40;20048;-62
2022/03/15 07:09:34;;;;;;;20.67;10.50;;;;;;;8.25;66.47;102314.22;3590844;40;20530;-62
2022/03/15 07:12:00;;;;;;;21.90;10.73;;;;;;;8.25;67.26;102306.16;3591068;40;20378;-62
2022/03/15 07:14:26;;;;;;;14.82;10.23;;;;;;;8.32;66.62;102315.78;3590854;40;20048;-62
2022/03/15 07:16:51;;;;;;;15.70;10.05;;;;;;;8.07;66.70;102259.34;3585713;40;20052;-62
2022/03/15 07:19:17;;;;;;;18.80;10.13;;;;;;;8.40;66.15;102313.78;3588923;40;20048;-63
2022/03/15 07:21:43;;;;;;;18.17;10.98;;;;;;;8.43;66.43;102324.41;3592440;40;20067;-62
2022/03/15 07:24:08;;;;;;;16.23;9.50;;;;;;;8.49;65.70;102310.84;3594544;40;20048;-63
2022/03/15 07:26:34;;;;;;;20.92;9.65;;;;;;;8.44;66.05;102296.72;3592424;40;20051;-64
2022/03/15 07:29:01;;;;;;;16.00;9.10;;;;;;;8.57;65.53;102305.25;3589151;40;20395;-64
2022/03/15 07:31:27;;;;;;;16.73;9.25;;;;;;;8.62;65.51;102310.47;3583317;40;20363;-63
2022/03/15 07:33:52;;;;;;;18.88;9.02;;;;;;;8.65;65.47;102313.94;3591140;40;20053;-63
2022/03/15 07:36:18;;;;;;;14.95;9.13;;;;;;;8.69;64.81;102309.34;3593829;40;20052;-63
2022/03/15 07:38:44;;;;;;;17.60;9.40;;;;;;;8.75;64.38;102298.44;3591263;40;20051;-63
2022/03/15 07:41:09;;;;;;;14.38;8.88;;;;;;;8.75;64.98;102293.09;3593770;40;20075;-63
2022/03/15 07:43:35;;;;;;;15.80;8.43;;;;;;;8.80;64.88;102296.50;3591094;40;20048;-63
2022/03/15 07:46:01;;;;;;;14.95;8.15;;;;;;;8.84;63.15;102303.53;3593853;40;20430;-63
2022/03/15 07:48:26;;;;;;;13.60;8.02;;;;;;;8.84;63.48;102300.84;3592655;40;20409;-63
2022/03/15 07:50:52;;;;;;;13.90;8.05;;;;;;;8.87;63.12;102303.44;3592010;40;20064;-63
2022/03/15 07:53:19;;;;;;;13.95;8.23;;;;;;;8.88;63.18;102298.94;3588182;40;20121;-63
2022/03/15 07:55:44;;;;;;;14.05;7.70;;;;;;;8.89;63.47;102296.22;3591352;40;20058;-63
2022/03/15 07:58:10;;;;;;;17.88;8.82;;;;;;;8.93;63.74;102292.53;3590260;40;20051;-63
2022/03/15 08:00:37;;;;;;;12.90;7.10;;;;;;;8.81;62.95;102276.81;3591078;40;20309;-63
2022/03/15 08:03:02;;;;;;;10.10;7.57;;;;;;;8.96;63.74;102297.78;3591573;40;20393;-63
2022/03/15 08:05:28;;;;;;;13.75;8.07;;;;;;;9.00;63.79;102287.84;3589168;40;20068;-63
2022/03/15 08:07:55;;;;;;;15.65;7.43;;;;;;;8.97;63.52;102264.66;3589707;40;20060;-63
2022/03/15 08:10:22;;;;;;;13.77;7.97;;;;;;;9.11;63.20;102285.69;3591674;39;20066;-63
2022/03/15 08:12:48;;;;;;;14.70;7.82;;;;;;;9.15;62.75;102275.75;3592038;39;20791;-63
2022/03/15 08:15:13;;;;;;;17.55;8.07;;;;;;;9.20;63.38;102285.41;3591950;39;20056;-63
2022/03/15 08:17:41;;;;;;;16.52;7.40;;;;;;;9.24;62.09;102275.44;3591397;39;20125;-63
2022/03/15 08:20:12;;;;;;;13.88;6.68;;;;;;;9.27;62.36;102270.84;3593070;39;20056;-64
2022/03/15 08:22:37;;;;;;;15.70;7.65;;;;;;;9.31;62.30;102266.25;3589176;39;20057;-63
2022/03/15 08:25:04;;;;;;;16.58;7.28;;;;;;;9.34;61.48;102266.16;3590683;39;20109;-63
2022/03/15 08:27:31;;;;;;;15.85;7.15;;;;;;;9.38;61.72;102265.13;3589675;39;20049;-63
2022/03/15 08:29:57;;;;;;;11.40;6.35;;;;;;;9.42;62.40;102257.84;3590250;40;20052;-63
2022/03/15 08:32:22;;;;;;;12.73;7.00;;;;;;;9.49;61.75;102262.97;3590621;39;20117;-64
2022/03/15 08:34:48;;;;;;;15.15;6.50;;;;;;;9.52;61.52;102260.16;3591938;39;20399;-62
2022/03/15 08:37:14;;;;;;;13.35;6.70;;;;;;;9.60;62.08;102261.69;3593135;39;20048;-62
2022/03/15 08:39:39;;;;;;;14.68;6.55;;;;;;;9.60;60.92;102262.56;3587729;39;20048;-62
2022/03/15 08:42:05;;;;;;;14.02;6.63;;;;;;;9.67;60.64;102256.09;3592055;40;20071;-62
2022/03/15 08:44:31;;;;;;;12.93;6.00;;;;;;;9.72;61.38;102253.22;3592221;39;20052;-62
2022/03/15 08:46:57;;;;;;;12.90;6.20;;;;;;;9.76;60.61;102263.78;3590925;39;21074;-62
2022/03/15 08:49:22;;;;;;;12.85;5.75;;;;;;;9.83;60.02;102253.72;3588989;39;20058;-62
2022/03/15 08:51:49;;;;;;;14.60;6.40;;;;;;;9.90;59.85;102257.94;3588854;40;20400;-62
2022/03/15 08:54:17;;;;;;;12.50;5.97;;;;;;;9.75;59.91;102215.53;3591049;39;20044;-62
2022/03/15 08:56:43;;;;;;;13.07;6.00;;;;;;;9.98;59.87;102253.16;3588519;39;20373;-62
2022/03/15 08:59:12;;;;;;;17.63;6.43;;;;;;;10.00;59.81;102251.31;3587961;40;20048;-62
2022/03/15 09:01:39;;;;;;;10.80;6.05;;;;;;;10.00;60.02;102237.88;3589094;39;20048;-62
2022/03/15 09:04:05;;;;;;;9.02;5.47;;;;;;;10.05;59.67;102244.88;3589647;40;20051;-62
2022/03/15 09:06:31;;;;;;;9.30;6.00;;;;;;;10.10;58.56;102248.28;3590730;39;20310;-62
2022/03/15 09:09:00;;;;;;;10.60;5.82;;;;;;;10.14;58.52;102242.72;3591259;40;20059;-62
2022/03/15 09:11:26;;;;;;;10.90;5.55;;;;;;;10.18;59.32;102241.69;3587859;40;20048;-62
2022/03/15 09:13:52;;;;;;;13.38;5.47;;;;;;;10.22;58.90;102235.25;3591020;39;20051;-62
2022/03/15 09:16:17;;;;;;;12.25;5.70;;;;;;;10.26;59.36;102240.53;3592017;39;20040;-62
2022/03/15 09:18:43;;;;;;;9.98;5.60;;;;;;;10.28;58.15;102239.56;3590584;39;20073;-63
2022/03/15 09:21:09;;;;;;;16.88;6.30;;;;;;;10.30;58.83;102237.69;3591904;39;20063;-63
2022/03/15 09:23:35;;;;;;;13.32;6.15;;;;;;;10.33;58.12;102248.31;3588352;40;20378;-62
2022/03/15 09:26:01;;;;;;;11.00;5.38;;;;;;;10.35;57.85;102234.84;3588277;39;20067;-62
2022/03/15 09:28:26;;;;;;;15.27;6.40;;;;;;;10.41;58.18;102245.34;3588559;40;20052;-64
2022/03/15 09:30:52;;;;;;;11.23;5.47;;;;;;;10.39;57.88;102240.00;3589296;40;20060;-63
2022/03/15 09:33:19;;;;;;;10.68;5.40;;;;;;;10.41;57.93;102242.66;3587702;39;20103;-63
2022/03/15 09:35:46;;;;;;;15.38;5.78;;;;;;;10.45;57.21;102246.97;3585039;40;20071;-63
2022/03/15 09:38:11;;;;;;;12.73;5.80;;;;;;;10.49;57.31;102239.66;3589287;40;20302;-64
2022/03/15 09:40:38;;;;;;;12.32;5.68;;;;;;;10.52;58.08;102247.59;3589152;40;20087;-63
2022/03/15 09:43:06;;;;;;;17.83;5.93;;;;;;;10.43;57.12;102214.78;3591904;40;20044;-64
2022/03/15 09:45:36;;;;;;;14.88;5.90;;;;;;;10.51;57.32;102219.84;3592386;39;20047;-63
2022/03/15 09:48:09;;;;;;;15.38;5.50;;;;;;;10.63;57.14;102232.81;3585519;39;20066;-63
2022/03/15 09:50:35;;;;;;;13.02;5.85;;;;;;;10.75;58.03;102230.56;3584557;40;20048;-64
2022/03/15 09:53:01;;;;;;;10.48;5.60;;;;;;;10.83;57.83;102237.41;3584980;40;20073;-63
2022/03/15 09:55:28;;;;;;;16.55;6.40;;;;;;;10.95;56.61;102235.16;3585801;40;20375;-64
2022/03/15 09:57:55;;;;;;;16.08;6.32;;;;;;;10.85;57.83;102207.75;3586513;40;20060;-64
2022/03/15 10:00:21;;;;;;;14.48;6.07;;;;;;;11.02;57.00;102228.59;3585814;40;20058;-64
2022/03/15 10:02:47;;;;;;;11.93;5.63;;;;;;;11.03;56.57;102222.25;3588023;40;20052;-64
2022/03/15 10:05:13;;;;;;;10.10;6.10;;;;;;;11.06;57.44;102232.88;3585374;40;20067;-63
2022/03/15 10:07:41;;;;;;;15.10;5.82;;;;;;;11.13;55.88;102229.00;3585611;40;20048;-63
2022/03/15 10:10:11;;;;;;;14.10;5.65;;;;;;;11.17;56.82;102229.78;3590134;40;20116;-64
2022/03/15 10:12:37;;;;;;;12.88;6.10;;;;;;;11.25;56.68;102219.53;3587014;40;20365;-64
2022/03/15 10:15:21;;;;;;;18.05;6.18;;;;;;;11.34;56.56;102217.31;3586537;40;20063;-63
2022/03/15 10:17:54;;;;;;;13.02;5.90;;;;;;;11.40;56.32;102221.59;3585550;40;20045;-63
2022/03/15 10:20:28;;;;;;;;;;;;;;;11.42;55.00;102210.72;3588143;39;20048;-64
2022/03/15 10:23:03;;;;;;;12.25;6.25;;;;;;;11.47;54.66;102211.41;3588484;40;19944;-64
2022/03/15 10:25:32;;;;;;;15.20;5.68;;;;;;;11.58;57.59;102217.22;3586602;40;20060;-63
2022/03/15 10:28:06;;;;;;;17.38;6.32;;;;;;;11.69;55.06;102211.34;3590890;40;20064;-64
2022/03/15 10:30:34;;;;;;;13.70;6.18;;;;;;;11.75;58.54;102203.88;3589649;39;20060;-63
2022/03/15 10:33:01;;;;;;;13.40;5.10;;;;;;;11.73;54.97;102186.03;3591020;40;20078;-63
2022/03/15 10:35:45;;;;;;;16.40;6.00;;;;;;;11.87;54.00;102198.94;3591463;40;20237;-63
2022/03/15 10:38:12;;;;;;;15.30;5.85;;;;;;;11.92;53.85;102194.19;3592346;39;20064;-64
2022/03/15 10:40:45;;;;;;;11.52;5.70;;;;;;;11.98;58.42;102200.16;3592153;39;20055;-64
2022/03/15 10:43:18;;;;;;;10.57;5.22;;;;;;;11.95;57.19;102196.75;3592711;40;20083;-63
2022/03/15 10:45:48;;;;;;;9.98;5.25;;;;;;;12.00;55.44;102189.34;3588055;39;20109;-64
2022/03/15 10:48:19;;;;;;;9.20;5.25;;;;;;;12.04;55.99;102177.44;3592414;39;20056;-64
2022/03/15 10:51:02;;;;;;;9.77;5.30;;;;;;;12.10;53.53;102173.59;3591342;39;20356;-64
2022/03/15 10:53:45;;;;;;;11.30;5.15;;;;;;;12.15;54.74;102180.53;3589815;40;20113;-64
2022/03/15 10:56:22;;;;;;;8.80;4.72;;;;;;;12.15;54.35;102175.16;3590063;40;20055;-64
2022/03/15 10:58:59;;;;;;;10.02;4.50;;;;;;;12.16;54.05;102168.81;3591589;39;20471;-62
2022/03/15 11:01:27;;;;;;;8.35;5.05;;;;;;;12.18;56.91;102166.91;3586918;40;20056;-62
2022/03/15 11:04:04;;;;;;;10.35;5.55;;;;;;;12.18;56.26;102164.22;3590962;39;20048;-62
2022/03/15 11:06:38;;;;;;;10.32;5.40;;;;;;;12.26;55.68;102166.53;3592758;39;20043;-61
2022/03/15 11:09:23;;;;;;;14.68;5.30;;;;;;;12.30;53.94;102166.34;3588805;40;20063;-63
2022/03/15 11:12:06;;;;;;;9.98;5.40;;;;;;;12.38;55.14;102163.25;3587404;39;20371;-63
2022/03/15 11:14:48;;;;;;;12.48;5.75;;;;;;;12.45;55.70;102158.44;3587836;40;20084;-64
2022/03/15 11:17:20;;;;;;;9.20;5.07;;;;;;;12.50;53.30;102146.50;3591701;40;20363;-64
2022/03/15 11:19:57;;;;;;;10.63;5.33;;;;;;;12.51;53.19;102128.47;3590076;39;20371;-63